Time;durP1;ratioP1;P1;durP2;ratioP2;P2;SDS_P1;SDS_P2;PMS_P1;PMS_P2;Temp;Humidity;BMP_temperature;BMP_pressure;BME280_temperature;BME280_humidity;BME280_pressure;Samples;Min_cycle;Max_cycle;Signal;HPM_P1;HPM_P2
2023/01/04 00:01:55;;;;;;;2.97;0.90;;;;;8.50;101469.00;;;;10467679;28;20687;-81
2023/01/04 00:06:57;;;;;;;3.00;0.73;;;;;8.60;101472.00;;;;10466294;28;20197;-82
2023/01/04 00:12:00;;;;;;;1.47;0.90;;;;;8.60;101454.00;;;;10453439;28;20196;-81
2023/01/04 00:17:02;;;;;;;0.77;0.57;;;;;8.70;101449.00;;;;10456209;28;20193;-80
2023/01/04 00:22:04;;;;;;;2.73;1.07;;;;;8.70;101444.00;;;;10480909;28;20205;-80
2023/01/04 00:27:06;;;;;;;1.17;0.77;;;;;8.70;101444.00;;;;10489923;28;20670;-82
2023/01/04 00:32:50;;;;;;;1.67;0.80;;;;;8.70;101441.00;;;;10425487;28;20208;-81
2023/01/04 00:38:26;;;;;;;;;;;;;;;;;;;;;
2023/01/04 00:43:37;;;;;;;1.90;0.60;;;;;8.80;101428.00;;;;10462231;28;21056;-80
2023/01/04 00:48:51;;;;;;;1.03;0.57;;;;;8.90;101421.00;;;;10434691;28;20608;-79
2023/01/04 00:54:02;;;;;;;1.07;0.70;;;;;8.90;101413.00;;;;10482424;28;20205;-79
2023/01/04 00:59:05;;;;;;;0.87;0.80;;;;;8.90;101403.00;;;;10504774;28;20207;-80
2023/01/04 01:04:10;;;;;;;2.20;0.80;;;;;8.90;101413.00;;;;10460983;28;20236;-80
2023/01/04 01:09:16;;;;;;;1.60;0.60;;;;;8.90;101396.00;;;;10447918;28;20289;-80
2023/01/04 01:14:23;;;;;;;2.60;0.77;;;;;8.90;101408.00;;;;10477488;28;20196;-81
2023/01/04 01:19:27;;;;;;;1.03;0.83;;;;;8.90;101396.00;;;;10507614;28;20659;-80
2023/01/04 01:24:31;;;;;;;0.73;0.60;;;;;8.90;101400.00;;;;10505493;28;20477;-81
2023/01/04 01:29:41;;;;;;;2.07;0.80;;;;;8.90;101400.00;;;;10498158;28;20189;-81
2023/01/04 01:34:43;;;;;;;0.60;0.60;;;;;8.90;101400.00;;;;10485894;28;20548;-80
2023/01/04 01:39:46;;;;;;;0.70;0.60;;;;;9.00;101383.00;;;;10470904;28;20196;-81
2023/01/04 01:44:58;;;;;;;2.87;0.73;;;;;9.00;101379.00;;;;10465687;28;20292;-80
2023/01/04 01:50:01;;;;;;;0.50;0.50;;;;;9.00;101392.00;;;;10452376;28;20281;-80
2023/01/04 01:55:08;;;;;;;0.73;0.70;;;;;9.10;101393.00;;;;10473887;28;20197;-81
2023/01/04 02:00:14;;;;;;;2.40;0.70;;;;;9.10;101400.00;;;;10509680;28;20708;-81
2023/01/04 02:05:18;;;;;;;1.30;0.70;;;;;9.20;101378.00;;;;10483914;28;20204;-81
2023/01/04 02:10:20;;;;;;;3.80;0.80;;;;;9.20;101370.00;;;;10469495;28;20624;-80
2023/01/04 02:15:27;;;;;;;0.97;0.97;;;;;9.30;101372.00;;;;10466209;28;20189;-81
2023/01/04 02:20:37;;;;;;;1.00;0.53;;;;;9.40;101374.00;;;;10519818;28;20189;-81
2023/01/04 02:26:18;;;;;;;4.90;1.10;;;;;9.40;101364.00;;;;10470724;28;20212;-80
2023/01/04 02:31:29;;;;;;;1.20;1.10;;;;;9.50;101363.00;;;;10449767;28;20284;-80
2023/01/04 02:36:47;;;;;;;1.33;0.70;;;;;9.50;101369.00;;;;10497225;28;20193;-80
2023/01/04 02:42:04;;;;;;;2.43;1.20;;;;;9.60;101365.00;;;;10486712;28;20218;-81
2023/01/04 02:47:14;;;;;;;1.47;1.27;;;;;9.70;101363.00;;;;10447480;28;20204;-81
2023/01/04 02:52:17;;;;;;;1.67;1.27;;;;;9.70;101361.00;;;;10478803;28;20200;-80
2023/01/04 02:57:44;;;;;;;2.80;1.47;;;;;9.80;101342.00;;;;10453374;28;20236;-81
2023/01/04 03:08:29;;;;;;;3.47;1.47;;;;;9.80;101335.00;;;;10498888;28;20189;-80
2023/01/04 03:13:38;;;;;;;4.60;1.70;;;;;9.90;101330.00;;;;10500956;28;20189;-81
2023/01/04 03:18:44;;;;;;;3.93;1.70;;;;;9.90;101327.00;;;;10491526;28;20280;-80
2023/01/04 03:51:17;;;;;;;2.23;1.43;;;;;10.20;101273.00;;;;10486781;28;20199;-80
2023/01/04 03:56:21;;;;;;;1.67;1.07;;;;;10.20;101261.00;;;;10489612;28;20197;-80
2023/01/04 04:01:25;;;;;;;3.17;1.20;;;;;10.20;101241.00;;;;10469747;28;20202;-80
2023/01/04 04:11:48;;;;;;;1.30;1.10;;;;;10.40;101246.00;;;;10508082;28;20192;-79
2023/01/04 04:16:50;;;;;;;3.37;1.37;;;;;10.50;101203.00;;;;10485794;28;20190;-80
2023/01/04 04:21:52;;;;;;;2.23;1.30;;;;;10.50;101237.00;;;;10465600;28;20202;-81
2023/01/04 04:26:54;;;;;;;2.13;1.27;;;;;10.60;101209.00;;;;10496444;28;20224;-80
2023/01/04 04:31:56;;;;;;;1.60;0.97;;;;;10.70;101203.00;;;;10471564;28;20284;-80
2023/01/04 04:36:58;;;;;;;1.80;1.13;;;;;10.80;101218.00;;;;10506439;28;20263;-80
2023/01/04 04:42:00;;;;;;;1.33;1.07;;;;;10.80;101217.00;;;;10476274;28;20201;-80
2023/01/04 04:47:02;;;;;;;4.57;1.00;;;;;10.80;101209.00;;;;10506483;28;20276;-79
2023/01/04 04:52:04;;;;;;;3.20;1.53;;;;;10.90;101213.00;;;;10505793;28;20201;-80
2023/01/04 04:57:06;;;;;;;4.87;1.50;;;;;10.90;101210.00;;;;10482950;28;22136;-79
2023/01/04 05:02:08;;;;;;;3.13;1.00;;;;;11.00;101194.00;;;;10455584;28;20664;-80
2023/01/04 05:07:10;;;;;;;3.10;1.10;;;;;11.00;101197.00;;;;10490717;28;20205;-79
2023/01/04 05:17:34;;;;;;;2.73;1.00;;;;;11.00;101180.00;;;;10504517;28;20773;-80
2023/01/04 05:22:36;;;;;;;1.80;1.10;;;;;11.10;101189.00;;;;10483550;28;20206;-80
2023/01/04 05:27:37;;;;;;;1.27;0.73;;;;;11.10;101193.00;;;;10469868;28;20658;-80
2023/01/04 05:32:39;;;;;;;2.43;0.80;;;;;11.10;101184.00;;;;10462912;28;20225;-79
2023/01/04 05:37:41;;;;;;;1.07;0.97;;;;;11.10;101185.00;;;;10446318;28;20659;-80
2023/01/04 05:42:43;;;;;;;3.90;0.80;;;;;11.10;101181.00;;;;10449528;28;20201;-80
2023/01/04 05:47:51;;;;;;;1.80;0.80;;;;;11.20;101190.00;;;;10470835;28;20885;-80
2023/01/04 05:52:53;;;;;;;1.03;0.60;;;;;11.30;101187.00;;;;10462147;28;20197;-79
2023/01/04 05:57:55;;;;;;;1.00;0.90;;;;;11.30;101177.00;;;;10453829;28;20178;-79
2023/01/04 06:02:57;;;;;;;4.90;0.80;;;;;11.30;101189.00;;;;10462159;28;20549;-79
2023/01/04 06:07:59;;;;;;;2.50;0.70;;;;;11.40;101182.00;;;;10478461;28;20206;-80
2023/01/04 06:13:01;;;;;;;0.70;0.70;;;;;11.40;101182.00;;;;10465485;28;20178;-80
2023/01/04 06:18:03;;;;;;;0.97;0.60;;;;;11.40;101190.00;;;;10445238;28;20217;-79
2023/01/04 06:23:13;;;;;;;0.77;0.53;;;;;11.30;101197.00;;;;10429108;28;20248;-79
2023/01/04 06:28:15;;;;;;;0.30;0.30;;;;;11.10;101189.00;;;;10517184;28;20220;-80
2023/01/04 06:33:17;;;;;;;2.47;0.87;;;;;11.00;101206.00;;;;10461917;28;20223;-79
2023/01/04 06:38:19;;;;;;;0.60;0.60;;;;;11.00;101197.00;;;;10481576;28;20940;-79
2023/01/04 06:43:20;;;;;;;1.00;0.70;;;;;11.00;101208.00;;;;10475663;28;20583;-79
2023/01/04 06:48:22;;;;;;;2.00;0.80;;;;;11.10;101199.00;;;;10495607;28;20200;-79
2023/01/04 06:53:24;;;;;;;2.47;0.57;;;;;11.20;101178.00;;;;10471859;28;20196;-79
2023/01/04 06:58:26;;;;;;;3.07;0.90;;;;;11.30;101192.00;;;;10500567;28;20258;-79
2023/01/04 07:03:28;;;;;;;1.87;0.57;;;;;11.30;101169.00;;;;10465945;28;20201;-79
2023/01/04 07:08:31;;;;;;;3.37;1.03;;;;;11.40;101152.00;;;;10462215;28;20232;-80
2023/01/04 07:13:33;;;;;;;1.93;0.97;;;;;11.40;101151.00;;;;10475986;28;20188;-79
2023/01/04 07:18:35;;;;;;;1.73;1.00;;;;;11.50;101169.00;;;;10485453;28;20190;-79
2023/01/04 07:23:37;;;;;;;1.23;0.77;;;;;11.50;101186.00;;;;10453729;28;20296;-80
2023/01/04 07:34:00;;;;;;;1.37;0.67;;;;;11.50;101174.00;;;;10495404;28;20268;-79
2023/01/04 07:39:02;;;;;;;1.53;0.80;;;;;11.60;101172.00;;;;10503975;28;20203;-79
2023/01/04 07:44:05;;;;;;;2.90;0.87;;;;;11.70;101167.00;;;;10495868;28;20316;-79
2023/01/04 07:49:11;;;;;;;3.30;0.50;;;;;11.70;101159.00;;;;10491083;28;20220;-79
2023/01/04 07:54:19;;;;;;;0.57;0.50;;;;;11.70;101124.00;;;;10493322;28;20185;-79
2023/01/04 07:59:21;;;;;;;1.50;0.83;;;;;11.80;101130.00;;;;10490673;28;20288;-80
2023/01/04 08:04:23;;;;;;;5.50;0.93;;;;;11.80;101147.00;;;;10524605;28;20217;-78
2023/01/04 08:09:33;;;;;;;3.20;0.80;;;;;11.70;101140.00;;;;10472158;28;20649;-79
2023/01/04 08:14:35;;;;;;;2.20;0.90;;;;;11.60;101150.00;;;;10499381;28;20177;-79
2023/01/04 08:19:37;;;;;;;2.17;1.20;;;;;11.70;101154.00;;;;10490095;28;20189;-80
2023/01/04 08:24:39;;;;;;;1.50;0.80;;;;;11.70;101167.00;;;;10499865;28;20216;-79
2023/01/04 08:29:41;;;;;;;1.83;1.20;;;;;11.80;101165.00;;;;10470718;28;20200;-79
2023/01/04 08:34:43;;;;;;;3.03;1.20;;;;;11.90;101156.00;;;;10481480;28;20228;-79
2023/01/04 08:39:45;;;;;;;1.90;0.90;;;;;11.90;101161.00;;;;10481966;28;20288;-79
2023/01/04 08:44:50;;;;;;;1.70;0.80;;;;;11.90;101162.00;;;;10457113;28;20201;-79
2023/01/04 08:49:59;;;;;;;3.50;1.00;;;;;11.90;101155.00;;;;10492590;28;21016;-79
2023/01/04 08:55:11;;;;;;;1.90;0.73;;;;;12.00;101166.00;;;;10482400;28;20192;-79
2023/01/04 09:00:17;;;;;;;4.33;1.00;;;;;12.00;101153.00;;;;10487383;28;20199;-79
2023/01/04 09:05:20;;;;;;;2.50;1.07;;;;;12.10;101157.00;;;;10482411;28;20299;-79
2023/01/04 09:10:23;;;;;;;3.90;1.00;;;;;12.20;101165.00;;;;10471947;28;20625;-79
2023/01/04 09:15:25;;;;;;;3.57;0.93;;;;;12.30;101168.00;;;;10483681;28;20196;-79
2023/01/04 09:20:27;;;;;;;2.70;1.10;;;;;12.30;101157.00;;;;10488872;28;20196;-79
2023/01/04 09:25:29;;;;;;;3.00;1.10;;;;;12.20;101158.00;;;;10472080;28;20328;-79
2023/01/04 09:30:31;;;;;;;3.87;1.07;;;;;12.20;101148.00;;;;10466312;28;20239;-79
2023/01/04 09:35:34;;;;;;;7.03;3.03;;;;;12.30;101161.00;;;;10505882;28;20383;-79
2023/01/04 09:40:51;;;;;;;1.63;1.03;;;;;12.30;101160.00;;;;10462972;28;20205;-79
2023/01/04 09:46:00;;;;;;;2.47;1.10;;;;;12.40;101169.00;;;;10504191;28;20208;-79
2023/01/04 09:51:06;;;;;;;1.50;0.80;;;;;12.30;101168.00;;;;10467703;28;20232;-78
2023/01/04 09:56:25;;;;;;;3.03;1.00;;;;;12.40;101170.00;;;;10499741;28;20194;-78
2023/01/04 10:01:40;;;;;;;1.30;0.97;;;;;12.50;101144.00;;;;10501517;28;20204;-78
2023/01/04 10:06:43;;;;;;;0.80;0.80;;;;;12.60;101162.00;;;;10465914;28;20218;-78
2023/01/04 10:12:00;;;;;;;1.33;0.73;;;;;12.60;101173.00;;;;10474024;28;20537;-79
2023/01/04 10:17:30;;;;;;;2.77;0.70;;;;;12.50;101179.00;;;;10489569;28;20285;-79
2023/01/04 10:22:57;;;;;;;2.53;0.83;;;;;12.40;101166.00;;;;10493155;28;20299;-78
2023/01/04 10:28:22;;;;;;;0.70;0.70;;;;;12.30;101156.00;;;;10476421;28;20232;-78
2023/01/04 10:33:32;;;;;;;0.90;0.53;;;;;12.20;101169.00;;;;10475457;28;20571;-79
2023/01/04 10:38:38;;;;;;;1.80;0.60;;;;;12.20;101166.00;;;;10478552;28;20223;-79
2023/01/04 10:43:57;;;;;;;4.13;0.80;;;;;12.30;101149.00;;;;10468728;28;20216;-79
2023/01/04 10:49:34;;;;;;;3.13;1.10;;;;;12.30;101145.00;;;;10470400;28;20250;-79
2023/01/04 10:54:45;;;;;;;2.10;1.00;;;;;12.50;101135.00;;;;10499224;28;20225;-79
2023/01/04 10:59:59;;;;;;;3.47;1.00;;;;;12.60;101137.00;;;;10506120;28;20204;-79
2023/01/04 11:05:11;;;;;;;2.00;1.00;;;;;12.70;101136.00;;;;10495048;28;20236;-79
2023/01/04 11:10:19;;;;;;;0.90;0.60;;;;;12.70;101127.00;;;;10483607;28;20228;-80
2023/01/04 11:15:21;;;;;;;4.13;1.00;;;;;12.60;101134.00;;;;10505384;28;20189;-80
2023/01/04 11:20:23;;;;;;;2.63;0.67;;;;;12.50;101133.00;;;;10465566;28;20559;-80
2023/01/04 11:25:34;;;;;;;0.80;0.70;;;;;12.40;101121.00;;;;10494792;28;20249;-80
2023/01/04 11:31:14;;;;;;;0.70;0.60;;;;;12.40;101135.00;;;;10460206;28;20323;-82
2023/01/04 11:36:37;;;;;;;1.73;0.83;;;;;12.50;101127.00;;;;10474945;28;20193;-82
2023/01/04 11:41:56;;;;;;;0.60;0.60;;;;;12.40;101118.00;;;;10484883;28;20644;-82
2023/01/04 11:47:05;;;;;;;3.13;1.40;;;;;12.40;101125.00;;;;10490998;28;20213;-82
2023/01/04 11:52:30;;;;;;;2.43;1.00;;;;;12.40;101115.00;;;;10485624;28;20192;-82
2023/01/04 11:57:33;;;;;;;2.63;0.70;;;;;12.50;101105.00;;;;10460879;28;20251;-84
2023/01/04 12:02:35;;;;;;;2.17;0.70;;;;;12.50;101117.00;;;;10476196;28;20209;-83
2023/01/04 12:07:58;;;;;;;1.83;1.00;;;;;12.60;101104.00;;;;10488338;28;20277;-82
2023/01/04 12:13:00;;;;;;;2.57;0.87;;;;;12.60;101092.00;;;;10506868;28;20280;-82
2023/01/04 12:18:18;;;;;;;2.60;0.73;;;;;12.80;101082.00;;;;10489765;28;20183;-82
2023/01/04 12:23:20;;;;;;;1.23;0.70;;;;;13.00;101080.00;;;;10468069;28;20205;-83
2023/01/04 12:28:40;;;;;;;1.03;0.50;;;;;12.90;101084.00;;;;10469422;28;20231;-84
2023/01/04 12:33:42;;;;;;;1.53;0.67;;;;;12.90;101080.00;;;;10468440;28;20191;-85
2023/01/04 12:39:03;;;;;;;1.17;0.60;;;;;12.80;101075.00;;;;10475046;28;20193;-83
2023/01/04 12:44:36;;;;;;;2.37;0.90;;;;;12.80;101079.00;;;;10503382;28;20548;-83
2023/01/04 12:49:38;;;;;;;0.93;0.87;;;;;12.60;101087.00;;;;10489026;28;20189;-83
2023/01/04 12:54:45;;;;;;;3.00;0.90;;;;;12.50;101079.00;;;;10488453;28;20272;-83
2023/01/04 12:59:54;;;;;;;2.73;0.83;;;;;12.60;101075.00;;;;10501249;28;20193;-83
2023/01/04 13:05:03;;;;;;;1.57;0.90;;;;;12.80;101078.00;;;;10471463;28;20728;-82
2023/01/04 13:10:33;;;;;;;1.53;0.57;;;;;12.70;101067.00;;;;10485057;28;20197;-82
2023/01/04 13:15:58;;;;;;;0.80;0.60;;;;;12.40;101083.00;;;;10474276;28;20180;-82
2023/01/04 13:21:07;;;;;;;1.33;0.80;;;;;12.40;101093.00;;;;10459637;28;20198;-82
2023/01/04 13:26:27;;;;;;;2.50;1.30;;;;;12.50;101104.00;;;;10470086;28;20225;-82
2023/01/04 13:31:29;;;;;;;1.20;0.80;;;;;12.70;101105.00;;;;10492605;28;20182;-82
2023/01/04 13:36:31;;;;;;;2.83;1.00;;;;;12.80;101115.00;;;;10494185;28;20200;-81
2023/01/04 13:41:33;;;;;;;3.30;1.10;;;;;12.80;101119.00;;;;10480014;28;20276;-81
2023/01/04 13:46:39;;;;;;;2.25;1.00;;;;;12.80;101105.00;;;;10469529;28;20684;-81
2023/01/04 13:51:42;;;;;;;1.70;1.23;;;;;12.90;101091.00;;;;10477154;28;20189;-81
2023/01/04 13:56:43;;;;;;;4.53;1.00;;;;;12.90;101089.00;;;;10473734;28;20177;-81
2023/01/04 14:01:54;;;;;;;2.10;1.00;;;;;12.80;101086.00;;;;10485905;28;20651;-81
2023/01/04 14:06:59;;;;;;;3.00;1.20;;;;;12.70;101095.00;;;;10456328;28;20205;-82
2023/01/04 14:12:14;;;;;;;2.20;0.70;;;;;12.60;101095.00;;;;10497959;28;20227;-82
2023/01/04 14:17:17;;;;;;;2.27;1.00;;;;;12.60;101085.00;;;;10471303;28;20298;-82
2023/01/04 14:22:22;;;;;;;1.67;1.20;;;;;12.70;101079.00;;;;10464600;28;20193;-83
2023/01/04 14:27:33;;;;;;;1.50;0.93;;;;;12.50;101081.00;;;;10462057;28;20239;-83
2023/01/04 14:32:34;;;;;;;5.23;1.10;;;;;12.40;101063.00;;;;10500491;28;20284;-82
2023/01/04 14:37:36;;;;;;;1.10;0.83;;;;;12.30;101082.00;;;;10502482;28;20197;-83
2023/01/04 14:42:38;;;;;;;2.17;1.23;;;;;12.30;101081.00;;;;10491693;28;20280;-84
2023/01/04 14:47:43;;;;;;;1.30;0.83;;;;;12.30;101056.00;;;;10482543;28;20215;-85
2023/01/04 14:52:53;;;;;;;1.63;1.10;;;;;12.30;101057.00;;;;10471850;28;20199;-84
2023/01/04 14:57:55;;;;;;;1.10;0.70;;;;;12.30;101056.00;;;;10448994;28;20194;-83
2023/01/04 15:02:56;;;;;;;0.60;0.60;;;;;12.30;101059.00;;;;10479781;28;20263;-83
2023/01/04 15:08:00;;;;;;;1.90;1.10;;;;;12.30;101058.00;;;;10499516;28;20654;-82
2023/01/04 15:13:03;;;;;;;1.37;1.27;;;;;12.30;101076.00;;;;10488781;28;20279;-82
2023/01/04 15:18:05;;;;;;;2.40;1.27;;;;;12.10;101073.00;;;;10489213;28;20189;-82
2023/01/04 15:23:08;;;;;;;3.40;1.20;;;;;12.00;101083.00;;;;10502587;28;20213;-82
2023/01/04 15:28:10;;;;;;;6.33;0.73;;;;;11.90;101099.00;;;;10489093;28;20235;-82
2023/01/04 15:33:12;;;;;;;7.47;1.50;;;;;11.80;101113.00;;;;10493156;28;20200;-84
2023/01/04 15:38:15;;;;;;;5.37;1.50;;;;;11.80;101108.00;;;;10493508;28;20200;-84
2023/01/04 15:43:19;;;;;;;8.30;2.60;;;;;11.70;101123.00;;;;10489070;28;20207;-84
2023/01/04 15:48:21;;;;;;;6.43;2.43;;;;;11.70;101123.00;;;;10474797;28;20228;-82
2023/01/04 15:53:23;;;;;;;14.53;2.17;;;;;11.70;101122.00;;;;10491922;28;20287;-82
2023/01/04 15:58:24;;;;;;;13.53;2.50;;;;;11.70;101128.00;;;;10473604;28;20209;-82
2023/01/04 16:03:26;;;;;;;16.27;2.87;;;;;11.70;101127.00;;;;10515161;28;20208;-81
2023/01/04 16:08:30;;;;;;;16.83;4.00;;;;;11.70;101125.00;;;;10490875;28;20199;-81
2023/01/04 16:13:32;;;;;;;19.60;4.27;;;;;11.70;101134.00;;;;10492264;28;20261;-81
2023/01/04 16:18:34;;;;;;;15.50;3.17;;;;;11.70;101122.00;;;;10448276;28;21658;-81
2023/01/04 16:23:36;;;;;;;24.80;4.07;;;;;11.70;101110.00;;;;10479890;28;20567;-81
2023/01/04 16:28:38;;;;;;;21.07;4.23;;;;;11.70;101113.00;;;;10484378;28;20213;-82
2023/01/04 16:33:41;;;;;;;20.10;4.17;;;;;11.70;101123.00;;;;10455444;28;20280;-81
2023/01/04 16:38:44;;;;;;;20.50;3.27;;;;;11.70;101124.00;;;;10480628;28;20680;-80
2023/01/04 16:43:51;;;;;;;27.83;3.33;;;;;11.60;101105.00;;;;10484478;28;20212;-80
2023/01/04 16:48:55;;;;;;;30.17;4.03;;;;;11.70;101138.00;;;;10488651;28;20201;-81
2023/01/04 16:53:57;;;;;;;22.43;3.30;;;;;11.70;101145.00;;;;10483351;28;20202;-81
2023/01/04 16:59:01;;;;;;;19.73;4.70;;;;;11.70;101127.00;;;;10485976;28;20213;-80
2023/01/04 17:04:09;;;;;;;20.93;4.10;;;;;11.70;101129.00;;;;10472870;28;20224;-81
2023/01/04 17:09:13;;;;;;;22.40;4.27;;;;;11.70;101128.00;;;;10497716;28;20296;-80
2023/01/04 17:14:15;;;;;;;26.20;4.67;;;;;11.70;101128.00;;;;10489053;28;20204;-81
2023/01/04 17:19:17;;;;;;;24.13;4.37;;;;;11.60;101134.00;;;;10479490;28;20202;-80
2023/01/04 17:24:20;;;;;;;25.67;5.87;;;;;11.60;101122.00;;;;10489116;28;20228;-80
2023/01/04 17:29:22;;;;;;;19.80;3.80;;;;;11.60;101131.00;;;;10487940;28;20707;-80
2023/01/04 17:34:24;;;;;;;25.83;4.27;;;;;11.50;101123.00;;;;10464313;28;20190;-80
2023/01/04 17:39:29;;;;;;;23.63;4.00;;;;;11.60;101123.00;;;;10446918;28;20193;-80
2023/01/04 17:44:31;;;;;;;20.13;4.13;;;;;11.60;101149.00;;;;10430785;28;20444;-80
2023/01/04 17:49:33;;;;;;;25.47;4.47;;;;;11.60;101170.00;;;;10455636;28;20278;-80
2023/01/04 17:54:35;;;;;;;23.80;4.90;;;;;11.50;101167.00;;;;10480181;28;20207;-80
2023/01/04 17:59:37;;;;;;;22.17;4.60;;;;;11.60;101163.00;;;;10459005;28;20280;-79
2023/01/04 18:04:39;;;;;;;24.10;4.70;;;;;11.50;101161.00;;;;10479297;28;20672;-80
2023/01/04 18:09:41;;;;;;;25.40;4.83;;;;;11.50;101161.00;;;;10439332;28;20288;-79
2023/01/04 18:14:43;;;;;;;18.87;4.37;;;;;11.50;101162.00;;;;10461785;28;20197;-80
2023/01/04 18:19:45;;;;;;;19.23;4.00;;;;;11.40;101178.00;;;;10472670;28;20311;-80
2023/01/04 18:24:47;;;;;;;21.50;4.67;;;;;11.40;101198.00;;;;10470136;28;20224;-80
2023/01/04 18:29:50;;;;;;;18.80;4.37;;;;;11.40;101205.00;;;;10478815;28;20201;-80
2023/01/04 18:34:52;;;;;;;16.53;3.53;;;;;11.50;101204.00;;;;10450546;28;20198;-80
2023/01/04 18:39:55;;;;;;;24.67;4.87;;;;;11.40;101200.00;;;;10442404;28;20196;-79
2023/01/04 18:44:59;;;;;;;23.97;4.57;;;;;11.30;101186.00;;;;10489002;28;20255;-79
2023/01/04 18:50:01;;;;;;;16.87;4.83;;;;;11.10;101196.00;;;;10453559;28;20288;-80
2023/01/04 18:55:04;;;;;;;31.43;4.40;;;;;11.10;101195.00;;;;10467919;28;20279;-79
2023/01/04 19:00:09;;;;;;;27.27;4.60;;;;;11.10;101204.00;;;;10474170;28;20220;-79
2023/01/04 19:05:12;;;;;;;18.53;3.77;;;;;11.10;101206.00;;;;10485883;28;20197;-79
2023/01/04 19:10:14;;;;;;;24.77;5.73;;;;;11.20;101224.00;;;;10484923;28;20204;-79
2023/01/04 19:15:16;;;;;;;21.00;3.93;;;;;11.20;101221.00;;;;10452027;28;20170;-79
2023/01/04 19:20:18;;;;;;;18.87;5.30;;;;;11.40;101203.00;;;;10501887;28;20319;-79
2023/01/04 19:25:20;;;;;;;21.20;4.60;;;;;11.40;101208.00;;;;10466486;28;20213;-79
2023/01/04 19:30:29;;;;;;;23.90;5.70;;;;;11.40;101215.00;;;;10491067;28;20266;-79
2023/01/04 19:35:31;;;;;;;26.67;4.57;;;;;11.40;101218.00;;;;10493142;28;20192;-79
2023/01/04 19:40:33;;;;;;;22.07;4.93;;;;;11.40;101242.00;;;;10491861;28;20289;-79
2023/01/04 19:45:38;;;;;;;19.30;5.13;;;;;11.50;101231.00;;;;10508791;28;20215;-79
2023/01/04 19:50:40;;;;;;;24.80;4.57;;;;;11.50;101232.00;;;;10507952;28;20198;-79
2023/01/04 19:55:42;;;;;;;21.80;4.40;;;;;11.50;101231.00;;;;10525379;28;20203;-79
2023/01/04 20:00:48;;;;;;;17.33;4.13;;;;;11.50;101244.00;;;;10567276;28;20192;-79
2023/01/04 20:06:03;;;;;;;20.20;4.37;;;;;11.50;101251.00;;;;10534388;28;20230;-79
2023/01/04 20:11:06;;;;;;;25.80;4.93;;;;;11.50;101250.00;;;;10533515;28;20180;-79
2023/01/04 20:16:08;;;;;;;20.57;3.77;;;;;11.50;101247.00;;;;10479764;28;20240;-79
2023/01/04 20:21:13;;;;;;;15.90;4.07;;;;;11.60;101246.00;;;;10485373;28;20259;-79
2023/01/04 20:26:17;;;;;;;19.37;4.27;;;;;11.60;101242.00;;;;10471275;28;20316;-78
2023/01/04 20:31:19;;;;;;;23.07;4.60;;;;;11.60;101238.00;;;;10490715;28;20200;-79
2023/01/04 20:36:22;;;;;;;19.93;4.90;;;;;11.50;101221.00;;;;10490050;28;20284;-79
2023/01/04 20:41:25;;;;;;;18.70;4.07;;;;;11.50;101242.00;;;;10476323;28;20190;-79
2023/01/04 20:46:31;;;;;;;20.07;3.53;;;;;11.60;101241.00;;;;10448789;28;20711;-79
2023/01/04 20:51:33;;;;;;;14.50;3.40;;;;;11.60;101240.00;;;;10433367;28;20603;-79
2023/01/04 20:56:37;;;;;;;14.20;3.37;;;;;11.50;101231.00;;;;10481640;28;20621;-79
2023/01/04 21:01:39;;;;;;;24.03;3.73;;;;;11.50;101245.00;;;;10532143;28;20200;-79
2023/01/04 21:06:41;;;;;;;18.23;3.53;;;;;11.40;101244.00;;;;10488736;28;20243;-79
2023/01/04 21:11:43;;;;;;;14.80;3.33;;;;;11.20;101244.00;;;;10505920;28;20200;-78
2023/01/04 21:16:45;;;;;;;13.33;3.13;;;;;11.10;101247.00;;;;10488978;28;20201;-78
2023/01/04 21:21:47;;;;;;;15.70;3.47;;;;;11.00;101250.00;;;;10488570;28;20659;-79
2023/01/04 21:26:49;;;;;;;26.80;4.17;;;;;10.90;101243.00;;;;10512962;28;20216;-78
2023/01/04 21:31:51;;;;;;;11.33;3.20;;;;;10.90;101251.00;;;;10481077;28;20202;-79
2023/01/04 21:36:53;;;;;;;20.23;4.67;;;;;10.80;101252.00;;;;10436916;28;20258;-79
2023/01/04 21:41:55;;;;;;;17.00;3.33;;;;;10.70;101255.00;;;;10463223;28;20239;-79
2023/01/04 21:46:57;;;;;;;13.00;3.27;;;;;10.60;101275.00;;;;10479499;28;20211;-79
2023/01/04 21:51:59;;;;;;;24.60;3.97;;;;;10.60;101272.00;;;;10488172;28;20196;-77
2023/01/04 21:57:01;;;;;;;15.07;3.07;;;;;10.60;101291.00;;;;10462797;28;20204;-79
2023/01/04 22:02:03;;;;;;;13.37;3.17;;;;;10.50;101279.00;;;;10496632;28;20243;-78
2023/01/04 22:07:05;;;;;;;14.43;3.00;;;;;10.50;101280.00;;;;10470433;28;20217;-79
2023/01/04 22:12:08;;;;;;;17.53;3.57;;;;;10.50;101278.00;;;;10487509;28;20334;-79
2023/01/04 22:17:10;;;;;;;18.87;3.57;;;;;10.40;101280.00;;;;10483691;28;20973;-78
2023/01/04 22:22:11;;;;;;;23.97;3.07;;;;;10.40;101276.00;;;;10445682;28;20193;-79
2023/01/04 22:27:13;;;;;;;20.10;3.37;;;;;10.30;101285.00;;;;10491264;28;20232;-79
2023/01/04 22:32:15;;;;;;;21.30;4.47;;;;;10.30;101288.00;;;;10483971;28;20191;-79
2023/01/04 22:37:17;;;;;;;15.63;3.33;;;;;10.30;101274.00;;;;10465616;28;20239;-79
2023/01/04 22:42:19;;;;;;;19.47;3.80;;;;;10.20;101280.00;;;;10497675;28;20536;-79
2023/01/04 22:47:21;;;;;;;21.63;4.50;;;;;10.20;101285.00;;;;10486449;28;20223;-78
2023/01/04 22:52:23;;;;;;;15.90;3.47;;;;;10.20;101301.00;;;;10503011;28;20547;-78
2023/01/04 22:57:24;;;;;;;20.67;3.33;;;;;10.20;101292.00;;;;10461060;28;20204;-78
2023/01/04 23:02:26;;;;;;;15.43;3.77;;;;;10.20;101286.00;;;;10497801;28;20193;-78
2023/01/04 23:07:28;;;;;;;21.70;3.40;;;;;10.20;101276.00;;;;10486163;28;20221;-78
2023/01/04 23:12:30;;;;;;;20.13;4.00;;;;;10.10;101277.00;;;;10480310;28;20207;-78
2023/01/04 23:17:32;;;;;;;20.10;3.53;;;;;10.10;101274.00;;;;10473786;28;20193;-78
2023/01/04 23:22:34;;;;;;;28.40;4.73;;;;;10.10;101287.00;;;;10478549;28;20598;-78
2023/01/04 23:27:36;;;;;;;16.37;3.30;;;;;10.20;101294.00;;;;10507987;28;20217;-78
2023/01/04 23:32:38;;;;;;;22.63;3.90;;;;;10.20;101296.00;;;;10510600;28;20239;-78
2023/01/04 23:37:40;;;;;;;18.07;3.83;;;;;10.20;101300.00;;;;10493394;28;20296;-78
2023/01/04 23:42:42;;;;;;;15.10;3.57;;;;;10.20;101308.00;;;;10468719;28;20203;-78
2023/01/04 23:47:46;;;;;;;17.37;2.90;;;;;10.20;101315.00;;;;10508402;28;20225;-78
2023/01/04 23:52:48;;;;;;;18.43;3.70;;;;;10.20;101319.00;;;;10537390;28;20585;-78
2023/01/04 23:57:52;;;;;;;16.00;3.13;;;;;10.20;101325.00;;;;10551026;28;20168;-78
